الصفحة الرئيسية
METAR-TAF:

METAR-TAF

مطار :

مطار شرم الشيخ الدولي

شرم الشيخ, مصر

دائرة عرض: 27-58N, خط طول: 034-23E, ارتفاع: 50 متر

مراقبة الطقس الحالي

تاريخ ووقت الإصدار 35 دقيقة قبل الساعة 10:00UTC
ريح 7 عقدة من الشمال/الشمال الشرقي
درجة الحرارة 21°درجة مئوية
الرطوبة 28%
ضغط 1016 hPa
الرؤية 10 كم أو أكثر
الغيوم لا تقل 1500 م ولا وجود لمزنة ركامية السحاب الأسود

METAR: HESH 221000Z 02007KT CAVOK 21/02 Q1016 NOSIG

زمن: 12:35 (10:35 UTC)

توقعات

تاريخ ووقت الإصدار 5ساعات و 35 دقيقة قبل الساعة 05:00UTC
التوقعات صالحة من22 الساعة 06 UTC إلى 23 الساعة 12 UTC
ريح 14 عقدة من الشمال/الشمال الشرقي
الرؤية 10 كم أو أكثر
الغيوم لا تقل 1500 م ولا وجود لمزنة ركامية السحاب الأسود

TAF: HESH 220500Z 2206/2312 02014KT CAVOK

أرصاد الطقس والتوقعات من أكثر من 4000 مطار (تقارير الطقس للمطار METAR والتنبؤ بالطقس بالمطارTAF).

المحطات المتاحة هي النقط الصفراء والحمراء على الخريطة.

حرك المؤشر فوق النقطة لمعرفة اسم المحطة.

ثم انقر لمعرفة أرصاد وتوقعات الطقس.

لتغيير الخارطة: اضغط على الأزرار الخضراء مع رمز الصليب الأسود للتكبير. على الزر الأخضر مع شرطة للتصغير، أو على الأسهم الخضراء للخرائط المجاورة.


METAR-TAF: